createdAt,value
2023-02-02T00:02:03.061Z,101787.50
2023-02-02T00:04:35.969Z,101790.13
2023-02-02T00:07:05.715Z,101787.56
2023-02-02T00:09:32.914Z,101793.53
2023-02-02T00:12:00.852Z,101789.22
2023-02-02T00:14:28.159Z,101793.53
2023-02-02T00:16:56.189Z,101796.94
2023-02-02T00:19:26.677Z,101790.03
2023-02-02T00:21:54.481Z,101790.03
2023-02-02T00:24:21.742Z,101784.88
2023-02-02T00:26:54.323Z,101800.38
2023-02-02T00:29:23.923Z,101792.66
2023-02-02T00:31:51.313Z,101790.13
2023-02-02T00:34:21.658Z,101791.84
2023-02-02T00:36:49.183Z,101795.28
2023-02-02T00:39:21.322Z,101791.00
2023-02-02T00:41:48.372Z,101793.66
2023-02-02T00:44:33.312Z,101797.09
2023-02-02T00:47:00.018Z,101794.53
2023-02-02T00:49:26.678Z,101796.25
2023-02-02T00:51:53.476Z,101803.19
2023-02-02T00:54:20.133Z,101798.03
2023-02-02T00:59:15.761Z,101806.63
2023-02-02T01:01:42.410Z,101806.63
2023-02-02T01:04:09.091Z,101814.38
2023-02-02T01:06:35.792Z,101818.69
2023-02-02T01:09:03.590Z,101810.97
2023-02-02T01:11:31.094Z,101811.88
2023-02-02T01:13:58.234Z,101803.25
2023-02-02T01:16:24.994Z,101811.00
2023-02-02T01:18:52.342Z,101814.50
2023-02-02T01:21:19.395Z,101805.91
2023-02-02T01:23:45.947Z,101804.16
2023-02-02T01:26:14.043Z,101800.69
2023-02-02T01:28:41.602Z,101805.84
2023-02-02T01:31:11.263Z,101802.34
2023-02-02T01:33:38.041Z,101798.03
2023-02-02T01:36:07.618Z,101809.19
2023-02-02T01:38:34.863Z,101805.78
2023-02-02T01:41:02.063Z,101812.63
2023-02-02T01:43:52.838Z,101803.16
2023-02-02T01:46:33.767Z,101818.69
2023-02-02T01:49:16.666Z,101809.22
2023-02-02T01:51:54.957Z,101817.81
2023-02-02T01:54:36.114Z,101827.31
2023-02-02T01:57:17.779Z,101826.44
2023-02-02T01:59:47.617Z,101830.75
2023-02-02T02:02:14.717Z,101823.88
2023-02-02T02:04:42.644Z,101828.16
2023-02-02T02:07:10.606Z,101823.84
2023-02-02T02:09:37.190Z,101821.22
2023-02-02T02:12:04.002Z,101822.06
2023-02-02T02:14:49.146Z,101821.19
2023-02-02T02:17:37.940Z,101817.75
2023-02-02T02:20:50.499Z,101812.59
2023-02-02T02:24:00.135Z,101810.84
2023-02-02T02:26:51.626Z,101816.03
2023-02-02T02:29:48.144Z,101808.28
2023-02-02T02:32:43.802Z,101826.34
2023-02-02T02:35:33.304Z,101816.91
2023-02-02T02:38:15.047Z,101818.63
2023-02-02T02:40:47.534Z,101808.34
2023-02-02T02:43:23.395Z,101804.88
2023-02-02T02:45:50.776Z,101803.13
2023-02-02T02:48:17.647Z,101810.84
2023-02-02T02:50:46.853Z,101800.53
2023-02-02T02:53:19.031Z,101812.59
2023-02-02T02:56:11.158Z,101809.19
2023-02-02T02:58:47.896Z,101821.28
2023-02-02T03:01:26.258Z,101814.47
2023-02-02T03:04:06.188Z,101822.19
2023-02-02T03:06:46.766Z,101814.44
2023-02-02T03:09:19.889Z,101813.56
2023-02-02T03:11:46.549Z,101810.16
2023-02-02T03:14:13.319Z,101820.44
2023-02-02T03:16:40.168Z,101817.88
2023-02-02T03:19:08.245Z,101821.28
2023-02-02T03:21:35.923Z,101816.13
2023-02-02T03:24:02.511Z,101812.66
2023-02-02T03:26:29.681Z,101799.78
2023-02-02T03:28:57.831Z,101806.66
2023-02-02T03:31:29.696Z,101816.09
2023-02-02T03:33:56.839Z,101814.38
2023-02-02T03:36:23.727Z,101813.53
2023-02-02T03:38:50.268Z,101812.63
2023-02-02T03:41:16.862Z,101812.66
2023-02-02T03:43:43.453Z,101821.22
2023-02-02T03:46:10.129Z,101819.47
2023-02-02T03:48:38.290Z,101812.59
2023-02-02T03:51:13.788Z,101811.75
2023-02-02T03:53:44.412Z,101817.75
2023-02-02T03:56:11.373Z,101817.78
2023-02-02T03:58:38.034Z,101822.09
2023-02-02T04:01:07.335Z,101822.06
2023-02-02T04:03:34.287Z,101831.50
2023-02-02T04:06:01.430Z,101822.94
2023-02-02T04:08:28.831Z,101826.38
2023-02-02T04:10:57.863Z,101827.22
2023-02-02T04:13:24.516Z,101822.94
2023-02-02T04:16:01.011Z,101837.53
2023-02-02T04:18:28.740Z,101832.34
2023-02-02T04:21:00.108Z,101834.91
2023-02-02T04:23:27.833Z,101836.66
2023-02-02T04:25:54.941Z,101834.91
2023-02-02T04:28:22.659Z,101838.38
2023-02-02T04:30:50.252Z,101843.53
2023-02-02T04:33:17.121Z,101845.25
2023-02-02T04:35:44.205Z,101839.22
2023-02-02T04:38:10.877Z,101847.81
2023-02-02T04:40:45.770Z,101845.25
2023-02-02T04:43:12.850Z,101842.66
2023-02-02T04:45:40.005Z,101842.72
2023-02-02T04:48:06.782Z,101843.56
2023-02-02T04:50:34.086Z,101841.84
2023-02-02T04:53:00.709Z,101841.00
2023-02-02T04:55:27.483Z,101839.25
2023-02-02T04:57:54.177Z,101847.00
2023-02-02T05:00:20.967Z,101837.50
2023-02-02T05:02:47.619Z,101837.53
2023-02-02T05:05:15.145Z,101840.97
2023-02-02T05:07:41.998Z,101839.25
2023-02-02T05:10:10.448Z,101841.84
2023-02-02T05:12:37.137Z,101840.06
2023-02-02T05:15:05.656Z,101838.38
2023-02-02T05:17:32.938Z,101829.72
2023-02-02T05:19:59.485Z,101825.44
2023-02-02T05:22:26.110Z,101829.75
2023-02-02T05:24:52.644Z,101828.88
2023-02-02T05:27:19.354Z,101827.13
2023-02-02T05:29:47.240Z,101836.63
2023-02-02T05:32:13.704Z,101827.16
2023-02-02T05:34:40.181Z,101840.91
2023-02-02T05:37:06.693Z,101839.22
2023-02-02T05:39:33.293Z,101841.75
2023-02-02T05:42:00.152Z,101849.50
2023-02-02T05:44:26.802Z,101847.81
2023-02-02T05:46:53.324Z,101847.78
2023-02-02T05:49:19.808Z,101837.44
2023-02-02T05:51:49.379Z,101846.91
2023-02-02T05:54:20.353Z,101846.03
2023-02-02T05:56:52.231Z,101853.78
2023-02-02T05:59:19.499Z,101852.94
2023-02-02T06:01:47.088Z,101852.97
2023-02-02T06:04:14.837Z,101854.66
2023-02-02T06:06:42.222Z,101870.13
2023-02-02T06:09:08.932Z,101870.06
2023-02-02T06:11:35.726Z,101856.31
2023-02-02T06:14:02.826Z,101856.28
2023-02-02T06:16:29.325Z,101855.41
2023-02-02T06:18:56.063Z,101852.84
2023-02-02T06:21:25.420Z,101864.03
2023-02-02T06:23:52.290Z,101860.59
2023-02-02T06:26:19.432Z,101861.44
2023-02-02T06:28:50.008Z,101856.25
2023-02-02T06:31:19.411Z,101868.34
2023-02-02T06:33:53.622Z,101883.84
2023-02-02T06:36:20.547Z,101876.94
2023-02-02T06:38:51.452Z,101870.06
2023-02-02T06:41:18.866Z,101881.25
2023-02-02T06:43:45.354Z,101883.00
2023-02-02T06:46:12.222Z,101885.56
2023-02-02T06:48:38.774Z,101884.72
2023-02-02T06:51:05.655Z,101886.41
2023-02-02T06:53:33.068Z,101889.00
2023-02-02T06:56:01.937Z,101888.16
2023-02-02T06:58:29.312Z,101892.44
2023-02-02T07:00:55.952Z,101902.78
2023-02-02T07:03:22.641Z,101898.44
2023-02-02T07:05:49.540Z,101892.44
2023-02-02T07:08:16.362Z,101894.13
2023-02-02T07:11:09.505Z,101896.75
2023-02-02T07:13:31.095Z,101895.84
2023-02-02T07:15:58.394Z,101890.66
2023-02-02T07:18:25.032Z,101898.41
2023-02-02T07:20:51.573Z,101882.06
2023-02-02T07:23:18.154Z,101894.97
2023-02-02T07:25:44.809Z,101900.16
2023-02-02T07:28:11.280Z,101903.63
2023-02-02T07:30:37.852Z,101907.06
2023-02-02T07:33:04.387Z,101903.63
2023-02-02T07:35:31.187Z,101911.38
2023-02-02T07:37:57.843Z,101907.06
2023-02-02T07:40:24.384Z,101910.53
2023-02-02T07:42:50.935Z,101902.72
2023-02-02T07:45:27.736Z,101912.19
2023-02-02T07:47:58.362Z,101913.03
2023-02-02T07:50:25.479Z,101916.50
2023-02-02T07:52:52.760Z,101921.63
2023-02-02T07:55:20.279Z,101908.69
2023-02-02T07:57:46.814Z,101916.44
2023-02-02T08:00:13.924Z,101920.75
2023-02-02T08:02:40.506Z,101916.50
2023-02-02T08:05:07.575Z,101925.13
2023-02-02T08:07:35.322Z,101929.44
2023-02-02T08:10:02.522Z,101932.00
2023-02-02T08:12:29.050Z,101936.31
2023-02-02T08:14:55.557Z,101937.19
2023-02-02T08:17:23.596Z,101935.44
2023-02-02T08:19:50.717Z,101932.84
2023-02-02T08:22:18.849Z,101938.91
2023-02-02T08:24:46.858Z,101943.22
2023-02-02T08:27:13.525Z,101948.34
2023-02-02T08:29:39.997Z,101952.66
2023-02-02T08:32:06.993Z,101950.91
2023-02-02T08:34:36.866Z,101954.38
2023-02-02T08:37:04.011Z,101954.31
2023-02-02T09:02:18.795Z,101980.66
2023-02-02T09:04:47.037Z,101975.50
2023-02-02T09:07:13.514Z,101982.47
2023-02-02T09:09:39.983Z,101983.28
2023-02-02T09:12:06.673Z,101985.84
2023-02-02T09:14:33.338Z,101992.81
2023-02-02T09:16:59.958Z,102005.72
2023-02-02T09:19:26.537Z,102009.13
2023-02-02T09:21:53.056Z,102014.28
2023-02-02T09:24:19.583Z,102006.56
2023-02-02T09:26:46.222Z,102009.97
2023-02-02T09:34:20.198Z,102024.69
2023-02-02T09:36:47.471Z,102034.19
2023-02-02T09:39:15.130Z,102043.59
2023-02-02T09:41:55.926Z,102049.59
2023-02-02T09:44:37.518Z,102056.47
2023-02-02T09:47:19.549Z,102066.00
2023-02-02T09:50:31.710Z,102065.06
2023-02-02T09:53:19.262Z,102069.38
2023-02-02T09:55:50.135Z,102077.13
2023-02-02T09:58:25.173Z,102082.25
2023-02-02T10:01:04.549Z,102090.88
2023-02-02T10:04:08.502Z,102087.44
2023-02-02T10:06:37.841Z,102094.44
2023-02-02T10:09:10.403Z,102085.81
2023-02-02T10:11:53.114Z,102078.09
2023-02-02T10:14:33.312Z,102086.75
2023-02-02T10:17:09.349Z,102088.47
2023-02-02T10:19:36.742Z,102091.00
2023-02-02T10:22:06.495Z,102090.16
2023-02-02T10:24:35.846Z,102099.66
2023-02-02T10:27:06.093Z,102094.47
2023-02-02T10:29:57.595Z,102103.97
2023-02-02T10:32:28.533Z,102098.75
2023-02-02T10:35:14.619Z,102099.59
2023-02-02T10:37:51.509Z,102096.94
2023-02-02T10:40:57.435Z,102098.63
2023-02-02T10:43:48.097Z,102094.31
2023-02-02T10:46:36.229Z,102109.84
2023-02-02T10:49:17.016Z,102102.94
2023-02-02T10:51:55.301Z,102108.09
2023-02-02T10:54:29.907Z,102109.81
2023-02-02T10:57:00.759Z,102108.09
2023-02-02T10:59:33.576Z,102104.69
2023-02-02T11:02:11.727Z,102109.81
2023-02-02T11:05:04.436Z,102116.72
2023-02-02T11:07:31.637Z,102118.47
2023-02-02T11:09:58.122Z,102121.06
2023-02-02T11:12:50.418Z,102133.13
2023-02-02T11:15:25.500Z,102128.81
2023-02-02T11:17:52.111Z,102130.50
2023-02-02T11:20:33.598Z,102132.22
2023-02-02T11:23:02.957Z,102131.38
2023-02-02T11:25:39.695Z,102137.41
2023-02-02T11:28:19.852Z,102131.34
2023-02-02T11:30:50.465Z,102133.06
2023-02-02T11:33:26.456Z,102131.31
2023-02-02T11:36:18.422Z,102127.88
2023-02-02T11:38:44.953Z,102121.00
2023-02-02T11:41:13.849Z,102120.13
2023-02-02T11:43:49.195Z,102108.97
2023-02-02T11:46:20.823Z,102113.25
2023-02-02T11:48:56.402Z,102119.25
2023-02-02T11:51:26.292Z,102112.34
2023-02-02T11:54:15.720Z,102119.25
2023-02-02T11:56:48.439Z,102113.16
2023-02-02T11:59:26.854Z,102109.78
2023-02-02T12:02:19.802Z,102106.31
2023-02-02T12:04:49.360Z,102110.63
2023-02-02T12:07:28.215Z,102114.03
2023-02-02T12:10:00.753Z,102105.47
2023-02-02T12:12:30.154Z,102118.38
2023-02-02T12:15:20.060Z,102112.31
2023-02-02T12:17:48.546Z,102115.81
2023-02-02T12:20:33.728Z,102122.66
2023-02-02T12:23:21.761Z,102114.91
2023-02-02T12:26:06.205Z,102109.69
2023-02-02T12:29:03.880Z,102122.66
2023-02-02T12:32:10.044Z,102116.63
2023-02-02T12:35:06.769Z,102117.50
2023-02-02T12:38:05.434Z,102117.50
2023-02-02T12:41:01.082Z,102111.47
2023-02-02T12:43:33.865Z,102114.94
2023-02-02T12:46:18.817Z,102117.50
2023-02-02T12:49:07.222Z,102122.66
2023-02-02T12:51:50.772Z,102119.19
2023-02-02T12:54:54.794Z,102111.44
2023-02-02T12:57:25.871Z,102111.38
2023-02-02T13:00:10.636Z,102102.81
2023-02-02T13:03:09.265Z,102110.59
2023-02-02T13:06:10.656Z,102100.25
2023-02-02T13:08:55.579Z,102104.59
2023-02-02T13:11:38.397Z,102111.50
2023-02-02T13:14:26.392Z,102114.13
2023-02-02T13:17:00.938Z,102116.72
2023-02-02T13:19:45.134Z,102117.56
2023-02-02T13:22:24.177Z,102117.59
2023-02-02T13:24:55.565Z,102123.59
2023-02-02T13:27:23.921Z,102117.59
2023-02-02T13:29:56.312Z,102123.59
2023-02-02T13:32:38.264Z,102127.06
2023-02-02T13:35:13.562Z,102124.50
2023-02-02T13:37:46.505Z,102132.22
2023-02-02T13:40:42.184Z,102131.38
2023-02-02T13:43:12.738Z,102148.63
2023-02-02T13:45:48.862Z,102146.00
2023-02-02T13:48:24.420Z,102139.09
2023-02-02T13:51:39.184Z,102140.84
2023-02-02T13:54:44.781Z,102142.56
2023-02-02T13:57:32.855Z,102135.72
2023-02-02T14:00:02.205Z,102134.84
2023-02-02T14:02:48.893Z,102136.59
2023-02-02T14:05:21.443Z,102144.38
2023-02-02T14:07:48.667Z,102150.38
2023-02-02T14:10:28.867Z,102143.47
2023-02-02T14:12:56.229Z,102134.84
2023-02-02T14:15:44.142Z,102138.28
2023-02-02T14:18:10.708Z,102135.72
2023-02-02T14:20:46.440Z,102136.59
2023-02-02T14:23:51.192Z,102134.88
2023-02-02T14:26:39.239Z,102142.63
2023-02-02T14:29:31.844Z,102147.81
2023-02-02T14:32:04.699Z,102147.81
2023-02-02T14:34:39.493Z,102151.25
2023-02-02T14:37:14.331Z,102150.41
2023-02-02T14:39:55.808Z,102143.50
2023-02-02T14:43:15.357Z,102152.97
2023-02-02T14:45:43.641Z,102149.53
2023-02-02T14:48:12.797Z,102159.03
2023-02-02T14:50:39.590Z,102155.53
2023-02-02T14:53:31.752Z,102160.72
2023-02-02T14:56:01.058Z,102159.88
2023-02-02T14:58:38.678Z,102159.84
2023-02-02T15:01:08.840Z,102171.06
2023-02-02T15:03:38.336Z,102171.06
2023-02-02T15:06:14.862Z,102177.06
2023-02-02T15:08:41.405Z,102178.78
2023-02-02T15:11:27.894Z,102181.28
2023-02-02T15:13:59.405Z,102187.34
2023-02-02T15:16:31.730Z,102185.63
2023-02-02T15:19:06.808Z,102182.16
2023-02-02T15:21:37.978Z,102182.19
2023-02-02T15:24:06.214Z,102183.03
2023-02-02T15:26:42.900Z,102189.06
2023-02-02T15:29:52.679Z,102195.13
2023-02-02T15:32:24.556Z,102194.25
2023-02-02T15:34:59.556Z,102192.56
2023-02-02T15:37:40.280Z,102202.03
2023-02-02T15:40:18.483Z,102201.25
2023-02-02T15:42:52.925Z,102208.97
2023-02-02T15:46:01.261Z,102213.31
2023-02-02T15:48:30.477Z,102216.75
2023-02-02T15:51:00.064Z,102222.81
2023-02-02T15:53:31.953Z,102221.09
2023-02-02T15:55:58.940Z,102217.72
2023-02-02T15:58:38.998Z,102220.28
2023-02-02T16:01:16.022Z,102223.75
2023-02-02T16:04:16.354Z,102227.16
2023-02-02T16:06:44.441Z,102227.13
2023-02-02T16:09:24.064Z,102225.44
2023-02-02T16:11:51.717Z,102231.50
2023-02-02T16:14:18.543Z,102234.97
2023-02-02T16:16:47.589Z,102226.31
2023-02-02T16:19:26.198Z,102226.31
2023-02-02T16:22:03.051Z,102228.91
2023-02-02T16:24:36.357Z,102237.53
2023-02-02T16:27:14.695Z,102234.97
2023-02-02T16:29:42.233Z,102233.22
2023-02-02T16:32:33.419Z,102232.41
2023-02-02T16:35:05.821Z,102241.00
2023-02-02T16:37:36.439Z,102251.34
2023-02-02T16:40:30.126Z,102252.19
2023-02-02T16:43:27.290Z,102253.94
2023-02-02T16:45:56.786Z,102265.97
2023-02-02T16:48:34.307Z,102260.78
2023-02-02T16:51:34.116Z,102273.72
2023-02-02T16:54:06.764Z,102263.38
2023-02-02T16:56:38.782Z,102266.00
2023-02-02T16:59:20.208Z,102272.00
2023-02-02T17:01:50.413Z,102265.97
2023-02-02T17:04:23.275Z,102272.00
2023-02-02T17:06:53.192Z,102276.31
2023-02-02T17:09:38.027Z,102271.16
2023-02-02T17:12:32.676Z,102271.16
2023-02-02T17:15:06.070Z,102272.84
2023-02-02T17:17:32.586Z,102280.59
2023-02-02T17:19:59.052Z,102268.56
2023-02-02T17:22:28.042Z,102276.31
2023-02-02T17:24:54.626Z,102274.59
2023-02-02T17:27:33.758Z,102278.06
2023-02-02T17:30:02.663Z,102272.91
2023-02-02T17:32:29.138Z,102276.38
2023-02-02T17:34:55.919Z,102276.31
2023-02-02T17:37:22.769Z,102282.34
2023-02-02T17:39:50.830Z,102286.69
2023-02-02T17:42:27.340Z,102288.41
2023-02-02T17:44:54.393Z,102287.50
2023-02-02T17:47:21.021Z,102287.53
2023-02-02T17:49:47.533Z,102284.09
2023-02-02T17:52:14.085Z,102288.41
2023-02-02T17:54:40.650Z,102290.13
2023-02-02T17:57:07.151Z,102284.94
2023-02-02T17:59:33.725Z,102288.38
2023-02-02T18:02:01.353Z,102287.53
2023-02-02T18:04:28.108Z,102298.75
2023-02-02T18:06:54.628Z,102292.72
2023-02-02T18:09:23.327Z,102295.28
2023-02-02T18:11:49.975Z,102297.88
2023-02-02T18:14:16.514Z,102297.03
2023-02-02T18:16:43.002Z,102297.88
2023-02-02T18:19:10.576Z,102293.56
2023-02-02T18:21:37.572Z,102302.22
2023-02-02T18:24:04.594Z,102301.34
2023-02-02T18:26:32.728Z,102304.81
2023-02-02T18:28:59.534Z,102303.91
2023-02-02T18:31:27.271Z,102300.47
2023-02-02T18:33:54.469Z,102296.16
2023-02-02T18:36:23.527Z,102304.75
2023-02-02T18:38:51.426Z,102296.13
2023-02-02T18:41:19.412Z,102294.41
2023-02-02T18:43:45.898Z,102302.16
2023-02-02T18:46:14.003Z,102301.31
2023-02-02T18:48:42.060Z,102299.56
2023-02-02T18:51:12.369Z,102299.56
2023-02-02T18:53:38.946Z,102296.13
2023-02-02T18:56:07.034Z,102288.34
2023-02-02T18:58:34.867Z,102284.06
2023-02-02T19:01:12.761Z,102284.91
2023-02-02T19:03:40.411Z,102284.94
2023-02-02T19:06:27.664Z,102283.19
2023-02-02T19:08:55.122Z,102277.16
2023-02-02T19:11:24.643Z,102269.41
2023-02-02T19:13:51.157Z,102270.25
2023-02-02T19:16:25.641Z,102273.69
2023-02-02T19:19:00.427Z,102278.84
2023-02-02T19:21:30.443Z,102289.19
2023-02-02T19:23:59.482Z,102289.22
2023-02-02T19:26:28.099Z,102283.16
2023-02-02T19:28:59.871Z,102297.81
2023-02-02T19:31:26.455Z,102295.25
2023-02-02T19:33:53.205Z,102290.94
2023-02-02T19:36:22.566Z,102299.53
2023-02-02T19:39:04.910Z,102302.13
2023-02-02T19:41:32.456Z,102296.13
2023-02-02T19:44:01.399Z,102299.56
2023-02-02T19:46:30.057Z,102298.69
2023-02-02T19:49:11.784Z,102294.38
2023-02-02T19:51:46.261Z,102290.06
2023-02-02T19:54:49.685Z,102301.28
2023-02-02T19:57:36.807Z,102301.28
2023-02-02T20:00:20.756Z,102302.16
2023-02-02T20:02:59.634Z,102305.59
2023-02-02T20:05:29.637Z,102297.88
2023-02-02T20:08:00.570Z,102299.59
2023-02-02T20:10:36.998Z,102300.47
2023-02-02T20:13:14.526Z,102283.22
2023-02-02T20:15:41.038Z,102290.13
2023-02-02T20:18:19.301Z,102292.72
2023-02-02T20:20:50.150Z,102289.22
2023-02-02T20:23:40.240Z,102292.69
2023-02-02T20:26:34.116Z,102284.94
2023-02-02T20:29:14.365Z,102275.47
2023-02-02T20:31:41.153Z,102280.63
2023-02-02T20:34:35.620Z,102276.34
2023-02-02T20:37:15.824Z,102284.09
2023-02-02T20:39:48.212Z,102278.06
2023-02-02T20:42:15.402Z,102277.19
2023-02-02T20:44:42.477Z,102272.00
2023-02-02T20:47:09.309Z,102279.75
2023-02-02T20:49:37.278Z,102278.03
2023-02-02T20:52:08.169Z,102285.78
2023-02-02T20:54:34.697Z,102286.63
2023-02-02T20:57:02.360Z,102289.22
2023-02-02T20:59:29.274Z,102290.94
2023-02-02T21:01:55.913Z,102298.69
2023-02-02T21:04:22.534Z,102300.44
2023-02-02T21:06:49.652Z,102290.94
2023-02-02T21:09:17.373Z,102304.75
2023-02-02T21:11:44.339Z,102310.75
2023-02-02T21:14:10.826Z,102321.13
2023-02-02T21:16:37.359Z,102315.94
2023-02-02T21:19:04.184Z,102324.56
2023-02-02T21:21:30.696Z,102321.09
2023-02-02T21:23:57.334Z,102336.63
2023-02-02T21:26:27.292Z,102339.19
2023-02-02T21:28:54.085Z,102335.72
2023-02-02T21:31:20.759Z,102339.13
2023-02-02T21:33:48.671Z,102343.41
2023-02-02T21:36:30.166Z,102338.22
2023-02-02T21:39:05.012Z,102332.16
2023-02-02T21:41:32.323Z,102330.41
2023-02-02T21:43:59.584Z,102325.22
2023-02-02T21:46:33.510Z,102333.88
2023-02-02T21:49:00.905Z,102330.44
2023-02-02T21:51:34.219Z,102332.19
2023-02-02T21:54:18.959Z,102331.34
2023-02-02T21:56:45.591Z,102317.53
2023-02-02T21:59:16.719Z,102327.03
2023-02-02T22:01:44.067Z,102318.41
2023-02-02T22:04:21.049Z,102320.13
2023-02-02T22:06:52.832Z,102321.00
2023-02-02T22:09:26.198Z,102321.00
2023-02-02T22:11:55.455Z,102322.72
2023-02-02T22:14:42.230Z,102323.56
2023-02-02T22:17:39.636Z,102317.53
2023-02-02T22:20:15.556Z,102322.69
2023-02-02T22:22:45.279Z,102315.81
2023-02-02T22:25:17.864Z,102311.50
2023-02-02T22:27:53.997Z,102305.47
2023-02-02T22:30:28.502Z,102317.53
2023-02-02T22:32:55.586Z,102323.56
2023-02-02T22:35:22.133Z,102320.97
2023-02-02T22:37:49.141Z,102320.09
2023-02-02T22:40:16.503Z,102309.75
2023-02-02T22:42:43.733Z,102308.03
2023-02-02T22:45:10.521Z,102324.41
2023-02-02T22:47:37.160Z,102319.22
2023-02-02T22:50:03.808Z,102311.47
2023-02-02T22:52:30.299Z,102321.81
2023-02-02T22:54:56.740Z,102305.41
2023-02-02T22:57:23.363Z,102304.53
2023-02-02T22:59:49.838Z,102297.66
2023-02-02T23:02:16.723Z,102300.25
2023-02-02T23:04:43.267Z,102292.44
2023-02-02T23:07:09.757Z,102292.41
2023-02-02T23:09:36.333Z,102295.88
2023-02-02T23:12:02.809Z,102301.03
2023-02-02T23:14:29.356Z,102312.25
2023-02-02T23:16:55.899Z,102314.84
2023-02-02T23:19:22.352Z,102319.13
2023-02-02T23:21:48.817Z,102314.81
2023-02-02T23:24:15.630Z,102307.03
2023-02-02T23:26:42.082Z,102312.22
2023-02-02T23:29:08.537Z,102308.78
2023-02-02T23:31:35.099Z,102308.78
2023-02-02T23:34:01.686Z,102300.13
2023-02-02T23:36:28.380Z,102280.31
2023-02-02T23:38:54.867Z,102282.94
2023-02-02T23:41:22.043Z,102273.44
2023-02-02T23:43:50.344Z,102276.00
2023-02-02T23:46:17.679Z,102264.78
2023-02-02T23:48:44.717Z,102265.66
2023-02-02T23:51:12.074Z,102257.03
2023-02-02T23:53:38.689Z,102252.72
2023-02-02T23:56:05.465Z,102251.88
2023-02-02T23:58:31.972Z,102252.72
